Time;durP1;ratioP1;P1;durP2;ratioP2;P2;SDS_P1;SDS_P2;PMS_P1;PMS_P2;Temp;Humidity;BMP_temperature;BMP_pressure;BME280_temperature;BME280_humidity;BME280_pressure;Samples;Min_cycle;Max_cycle;Signal;HPM_P1;HPM_P2
2023/09/02 00:02:24;;;;;;;2.90;1.50;;;;;;;;;;5035581;28;20179;-77
2023/09/02 00:04:50;;;;;;;4.00;1.60;;;;;;;;;;5013295;28;20190;-78
2023/09/02 00:07:16;;;;;;;3.73;1.70;;;;;;;;;;5036562;28;20264;-77
2023/09/02 00:09:42;;;;;;;4.37;1.20;;;;;;;;;;5038039;28;20198;-78
2023/09/02 00:12:08;;;;;;;1.73;1.57;;;;;;;;;;4989994;28;20190;-78
2023/09/02 00:14:35;;;;;;;1.97;1.57;;;;;;;;;;5029570;28;20193;-78
2023/09/02 00:17:01;;;;;;;2.40;1.63;;;;;;;;;;5033944;28;20217;-78
2023/09/02 00:19:27;;;;;;;2.00;1.40;;;;;;;;;;5011703;28;20182;-78
2023/09/02 00:21:53;;;;;;;1.97;1.57;;;;;;;;;;5017267;28;20277;-79
2023/09/02 00:24:19;;;;;;;2.60;1.40;;;;;;;;;;5032445;28;20194;-79
2023/09/02 00:26:46;;;;;;;2.87;1.67;;;;;;;;;;5013314;28;20214;-79
2023/09/02 00:29:12;;;;;;;4.63;1.50;;;;;;;;;;5029528;28;20190;-78
2023/09/02 00:31:38;;;;;;;2.33;1.80;;;;;;;;;;5012145;28;20724;-77
2023/09/02 00:34:04;;;;;;;3.40;1.80;;;;;;;;;;5011350;28;20179;-77
2023/09/02 00:36:32;;;;;;;3.20;1.87;;;;;;;;;;5048721;28;20209;-78
2023/09/02 00:38:59;;;;;;;2.03;1.67;;;;;;;;;;5036811;28;20240;-77
2023/09/02 00:41:28;;;;;;;2.17;1.70;;;;;;;;;;5029020;28;20617;-78
2023/09/02 00:43:58;;;;;;;2.07;1.70;;;;;;;;;;5033757;28;21237;-77
2023/09/02 00:46:24;;;;;;;3.13;1.60;;;;;;;;;;5032978;28;20207;-77
2023/09/02 00:48:50;;;;;;;3.50;1.87;;;;;;;;;;5038094;28;20245;-78
2023/09/02 00:51:16;;;;;;;2.73;1.70;;;;;;;;;;5040737;28;20312;-78
2023/09/02 00:53:46;;;;;;;2.77;1.60;;;;;;;;;;5024070;28;20194;-78
2023/09/02 00:56:14;;;;;;;5.17;1.80;;;;;;;;;;5015336;28;20267;-78
2023/09/02 00:58:40;;;;;;;3.77;1.70;;;;;;;;;;5025868;28;20677;-79
2023/09/02 01:01:07;;;;;;;2.53;1.50;;;;;;;;;;5016463;28;20249;-77
2023/09/02 01:03:35;;;;;;;2.37;1.60;;;;;;;;;;4999526;28;20546;-78
2023/09/02 01:06:03;;;;;;;4.90;1.70;;;;;;;;;;5016824;28;20685;-78
2023/09/02 01:08:30;;;;;;;2.87;1.67;;;;;;;;;;5014272;28;20175;-78
2023/09/02 01:10:59;;;;;;;4.87;1.90;;;;;;;;;;5014061;28;20177;-79
2023/09/02 01:13:25;;;;;;;2.03;1.60;;;;;;;;;;5033306;28;20233;-76
2023/09/02 01:15:54;;;;;;;1.73;1.60;;;;;;;;;;5015375;28;20174;-77
2023/09/02 01:18:21;;;;;;;3.20;1.60;;;;;;;;;;5014080;28;20202;-79
2023/09/02 01:20:54;;;;;;;2.57;1.40;;;;;;;;;;5038934;28;20256;-78
2023/09/02 01:23:33;;;;;;;1.57;1.47;;;;;;;;;;5038554;28;20273;-78
2023/09/02 01:26:02;;;;;;;4.10;1.87;;;;;;;;;;5043495;28;20253;-76
2023/09/02 01:28:32;;;;;;;3.40;1.60;;;;;;;;;;5028270;28;20636;-79
2023/09/02 01:31:00;;;;;;;3.57;1.60;;;;;;;;;;5037756;28;20190;-78
2023/09/02 01:33:27;;;;;;;4.47;1.63;;;;;;;;;;5015535;28;20273;-78
2023/09/02 01:35:53;;;;;;;1.43;1.30;;;;;;;;;;5032910;28;20254;-78
2023/09/02 01:38:24;;;;;;;3.83;1.50;;;;;;;;;;5014077;28;20560;-78
2023/09/02 01:40:52;;;;;;;1.60;1.40;;;;;;;;;;5037953;28;20209;-78
2023/09/02 01:43:20;;;;;;;2.20;1.50;;;;;;;;;;5014587;28;20740;-78
2023/09/02 01:45:47;;;;;;;1.60;1.50;;;;;;;;;;5032470;28;20712;-78
2023/09/02 01:48:13;;;;;;;1.63;1.50;;;;;;;;;;5006919;28;20182;-79
2023/09/02 01:50:40;;;;;;;2.77;1.80;;;;;;;;;;5036319;28;20186;-76
2023/09/02 01:53:10;;;;;;;1.90;1.70;;;;;;;;;;5019394;28;20198;-78
2023/09/02 01:55:37;;;;;;;4.50;1.70;;;;;;;;;;5037167;28;20201;-78
2023/09/02 01:58:04;;;;;;;3.07;1.60;;;;;;;;;;5023554;28;20241;-77
2023/09/02 02:00:30;;;;;;;1.70;1.60;;;;;;;;;;5017036;28;20302;-78
2023/09/02 02:02:56;;;;;;;2.20;1.43;;;;;;;;;;5014176;28;20187;-79
2023/09/02 02:05:33;;;;;;;3.90;1.47;;;;;;;;;;5038179;28;20182;-78
2023/09/02 02:08:02;;;;;;;3.73;1.50;;;;;;;;;;4996196;28;20218;-77
2023/09/02 02:10:30;;;;;;;3.17;1.70;;;;;;;;;;5026146;28;20206;-79
2023/09/02 02:13:00;;;;;;;1.80;1.40;;;;;;;;;;5019894;28;20990;-78
2023/09/02 02:15:27;;;;;;;2.57;1.63;;;;;;;;;;5013760;28;20301;-77
2023/09/02 02:17:53;;;;;;;3.33;1.70;;;;;;;;;;5012160;28;20199;-78
2023/09/02 02:20:21;;;;;;;3.13;1.70;;;;;;;;;;5026453;28;20210;-78
2023/09/02 02:22:47;;;;;;;2.33;2.00;;;;;;;;;;5043346;28;20186;-77
2023/09/02 02:25:13;;;;;;;2.03;1.70;;;;;;;;;;5005322;28;20210;-78
2023/09/02 02:27:39;;;;;;;1.40;1.30;;;;;;;;;;5015788;28;20206;-75
2023/09/02 02:30:06;;;;;;;3.77;1.40;;;;;;;;;;5031593;28;20285;-79
2023/09/02 02:32:34;;;;;;;2.27;1.57;;;;;;;;;;5040686;28;20182;-78
2023/09/02 02:35:01;;;;;;;2.40;1.57;;;;;;;;;;5013707;28;20198;-78
2023/09/02 02:37:27;;;;;;;3.27;1.60;;;;;;;;;;5024607;28;20222;-78
2023/09/02 02:39:53;;;;;;;3.27;1.50;;;;;;;;;;4996062;28;20213;-78
2023/09/02 02:42:20;;;;;;;4.80;1.60;;;;;;;;;;5030823;28;20657;-78
2023/09/02 02:44:46;;;;;;;1.73;1.30;;;;;;;;;;4994671;28;20250;-79
2023/09/02 02:47:13;;;;;;;2.27;1.40;;;;;;;;;;5010938;28;20285;-78
2023/09/02 02:49:39;;;;;;;2.10;1.40;;;;;;;;;;5039172;28;20269;-78
2023/09/02 02:52:05;;;;;;;1.87;1.40;;;;;;;;;;5009660;28;20191;-78
2023/09/02 02:54:31;;;;;;;1.97;1.87;;;;;;;;;;4992505;28;20240;-78
2023/09/02 02:56:59;;;;;;;3.40;1.80;;;;;;;;;;4995383;28;20636;-78
2023/09/02 02:59:25;;;;;;;2.10;1.73;;;;;;;;;;5011603;28;20193;-78
2023/09/02 03:01:52;;;;;;;1.67;1.57;;;;;;;;;;5015994;28;20255;-77
2023/09/02 03:04:18;;;;;;;2.87;1.67;;;;;;;;;;4990421;28;20195;-77
2023/09/02 03:06:44;;;;;;;2.37;1.77;;;;;;;;;;5012205;28;20203;-77
2023/09/02 03:09:11;;;;;;;3.10;1.40;;;;;;;;;;5000999;28;20215;-78
2023/09/02 03:11:37;;;;;;;1.80;1.67;;;;;;;;;;5030053;28;20193;-79
2023/09/02 03:14:04;;;;;;;2.37;1.70;;;;;;;;;;5017822;28;20186;-78
2023/09/02 03:16:30;;;;;;;3.30;1.57;;;;;;;;;;5031676;28;20238;-78
2023/09/02 03:18:58;;;;;;;1.80;1.70;;;;;;;;;;5016784;28;20209;-79
2023/09/02 03:21:27;;;;;;;2.50;1.63;;;;;;;;;;5012659;28;20214;-78
2023/09/02 03:23:54;;;;;;;4.10;1.77;;;;;;;;;;4996541;28;20664;-78
2023/09/02 03:26:24;;;;;;;2.80;1.77;;;;;;;;;;5018083;28;20217;-78
2023/09/02 03:28:51;;;;;;;2.20;1.50;;;;;;;;;;4995352;28;20240;-78
2023/09/02 03:31:18;;;;;;;2.10;1.60;;;;;;;;;;5011747;28;20190;-78
2023/09/02 03:33:45;;;;;;;1.67;1.57;;;;;;;;;;5012352;28;20202;-78
2023/09/02 03:36:25;;;;;;;1.73;1.63;;;;;;;;;;5017111;28;20693;-77
2023/09/02 03:38:52;;;;;;;2.60;1.50;;;;;;;;;;5025402;28;20216;-77
2023/09/02 03:41:19;;;;;;;1.60;1.50;;;;;;;;;;5028182;28;20303;-76
2023/09/02 03:43:46;;;;;;;1.43;1.30;;;;;;;;;;5028550;28;20193;-76
2023/09/02 03:46:12;;;;;;;1.73;1.50;;;;;;;;;;5028478;28;20190;-76
2023/09/02 03:48:38;;;;;;;1.80;1.30;;;;;;;;;;5027650;28;20676;-77
2023/09/02 03:51:11;;;;;;;1.50;1.40;;;;;;;;;;5025473;28;20196;-77
2023/09/02 03:53:38;;;;;;;2.27;1.60;;;;;;;;;;5029121;28;20190;-77
2023/09/02 03:56:05;;;;;;;2.60;1.40;;;;;;;;;;5028404;28;20199;-77
2023/09/02 03:58:33;;;;;;;3.20;1.43;;;;;;;;;;5041042;28;20213;-77
2023/09/02 04:00:59;;;;;;;2.33;1.70;;;;;;;;;;5027660;28;20225;-77
2023/09/02 04:03:26;;;;;;;4.07;1.87;;;;;;;;;;5028128;28;20265;-77
2023/09/02 04:05:52;;;;;;;1.97;1.70;;;;;;;;;;5029594;28;20645;-76
2023/09/02 04:08:20;;;;;;;1.87;1.77;;;;;;;;;;5027397;28;20206;-77
2023/09/02 04:10:53;;;;;;;1.70;1.60;;;;;;;;;;5029971;28;20599;-77
2023/09/02 04:13:26;;;;;;;1.50;1.40;;;;;;;;;;5028554;28;20198;-76
2023/09/02 04:15:59;;;;;;;2.87;1.80;;;;;;;;;;5044622;28;20190;-76
2023/09/02 04:18:27;;;;;;;3.23;1.60;;;;;;;;;;5027077;28;20213;-77
2023/09/02 04:20:54;;;;;;;2.17;1.70;;;;;;;;;;5026971;28;20212;-77
2023/09/02 04:23:22;;;;;;;2.50;1.70;;;;;;;;;;5027818;28;20182;-77
2023/09/02 04:25:51;;;;;;;2.93;2.17;;;;;;;;;;5027659;28;20182;-77
2023/09/02 04:28:18;;;;;;;1.90;1.60;;;;;;;;;;5026916;28;20209;-77
2023/09/02 04:30:45;;;;;;;2.20;1.30;;;;;;;;;;5027069;28;20217;-77
2023/09/02 04:33:13;;;;;;;1.60;1.30;;;;;;;;;;5027769;28;20188;-77
2023/09/02 04:35:41;;;;;;;1.80;1.50;;;;;;;;;;5027404;28;20187;-78
2023/09/02 04:38:07;;;;;;;1.93;1.50;;;;;;;;;;5040757;28;20218;-77
2023/09/02 04:40:38;;;;;;;2.50;1.60;;;;;;;;;;5043156;28;20221;-77
2023/09/02 04:43:05;;;;;;;3.47;1.73;;;;;;;;;;5027104;28;20626;-78
2023/09/02 04:45:36;;;;;;;3.87;1.73;;;;;;;;;;5043900;28;20241;-77
2023/09/02 04:48:04;;;;;;;2.33;1.97;;;;;;;;;;5041057;28;20225;-77
2023/09/02 04:50:34;;;;;;;3.20;1.70;;;;;;;;;;5026529;28;20185;-77
2023/09/02 04:53:02;;;;;;;3.20;1.70;;;;;;;;;;5026428;28;21438;-77
2023/09/02 04:55:33;;;;;;;1.90;1.60;;;;;;;;;;5010934;28;20191;-77
2023/09/02 04:58:00;;;;;;;2.50;1.80;;;;;;;;;;5027023;28;20593;-77
2023/09/02 05:00:27;;;;;;;2.80;1.80;;;;;;;;;;5025913;28;20473;-77
2023/09/02 05:02:53;;;;;;;1.80;1.70;;;;;;;;;;5025551;28;20183;-76
2023/09/02 05:05:20;;;;;;;2.07;1.40;;;;;;;;;;5025528;28;20252;-77
2023/09/02 05:07:46;;;;;;;2.57;1.40;;;;;;;;;;5009825;28;20672;-77
2023/09/02 05:10:15;;;;;;;1.87;1.40;;;;;;;;;;5008654;28;20530;-76
2023/09/02 05:12:41;;;;;;;1.63;1.20;;;;;;;;;;5009675;28;20183;-76
2023/09/02 05:15:09;;;;;;;2.30;1.10;;;;;;;;;;5026017;28;20191;-78
2023/09/02 05:17:36;;;;;;;2.67;1.30;;;;;;;;;;5025710;28;20229;-77
2023/09/02 05:20:03;;;;;;;2.30;1.20;;;;;;;;;;5026762;28;20309;-76
2023/09/02 05:22:29;;;;;;;0.97;0.90;;;;;;;;;;5011603;28;20193;-77
2023/09/02 05:24:56;;;;;;;1.20;1.10;;;;;;;;;;5029623;28;20181;-76
2023/09/02 05:27:22;;;;;;;1.37;1.27;;;;;;;;;;5028950;28;20293;-77
2023/09/02 05:29:49;;;;;;;2.07;1.33;;;;;;;;;;5024399;28;20683;-77
2023/09/02 05:32:16;;;;;;;2.43;1.40;;;;;;;;;;5027759;28;20183;-77
2023/09/02 05:34:42;;;;;;;2.40;1.47;;;;;;;;;;5030651;28;20324;-77
2023/09/02 05:37:08;;;;;;;1.87;1.70;;;;;;;;;;5029262;28;20206;-77
2023/09/02 05:39:34;;;;;;;2.77;1.70;;;;;;;;;;5030041;28;20187;-77
2023/09/02 05:42:00;;;;;;;1.70;1.60;;;;;;;;;;5030778;28;20212;-77
2023/09/02 05:44:26;;;;;;;2.47;1.90;;;;;;;;;;5030626;28;20641;-76
2023/09/02 05:46:52;;;;;;;3.00;1.90;;;;;;;;;;5030464;28;20203;-76
2023/09/02 05:49:19;;;;;;;2.73;1.77;;;;;;;;;;5030519;28;20193;-77
2023/09/02 05:51:45;;;;;;;1.80;1.70;;;;;;;;;;5030913;28;20552;-77
2023/09/02 05:54:12;;;;;;;2.50;1.60;;;;;;;;;;5031544;28;20189;-77
2023/09/02 05:56:38;;;;;;;2.40;1.80;;;;;;;;;;5013348;28;20206;-77
2023/09/02 05:59:05;;;;;;;5.43;2.03;;;;;;;;;;5030113;28;20526;-77
2023/09/02 06:01:31;;;;;;;2.00;1.80;;;;;;;;;;5030408;28;20210;-77
2023/09/02 06:03:58;;;;;;;3.30;1.90;;;;;;;;;;5027377;28;20186;-77
2023/09/02 06:06:24;;;;;;;2.90;2.00;;;;;;;;;;5030244;28;20228;-78
2023/09/02 06:08:50;;;;;;;2.47;1.80;;;;;;;;;;5031406;28;20175;-77
2023/09/02 06:11:16;;;;;;;3.40;1.70;;;;;;;;;;5027205;28;20178;-79
2023/09/02 06:13:42;;;;;;;2.27;1.93;;;;;;;;;;5030552;28;20206;-77
2023/09/02 06:16:09;;;;;;;2.10;1.90;;;;;;;;;;5031935;28;20617;-78
2023/09/02 06:18:35;;;;;;;1.73;1.63;;;;;;;;;;5031093;28;20265;-78
2023/09/02 06:21:11;;;;;;;2.50;1.90;;;;;;;;;;5030254;28;20242;-78
2023/09/02 06:23:38;;;;;;;3.47;2.10;;;;;;;;;;5031039;28;20178;-78
2023/09/02 06:26:04;;;;;;;2.60;2.10;;;;;;;;;;5030308;28;20458;-76
2023/09/02 06:28:30;;;;;;;2.47;2.03;;;;;;;;;;5029994;28;20198;-76
2023/09/02 06:30:56;;;;;;;1.90;1.80;;;;;;;;;;5030959;28;20193;-77
2023/09/02 06:33:24;;;;;;;2.97;1.83;;;;;;;;;;5032959;28;20241;-78
2023/09/02 06:35:50;;;;;;;2.20;2.00;;;;;;;;;;5032906;28;20674;-79
2023/09/02 06:38:17;;;;;;;2.80;1.90;;;;;;;;;;5029320;28;20228;-81
2023/09/02 06:40:43;;;;;;;2.87;2.07;;;;;;;;;;5030536;28;20194;-80
2023/09/02 06:43:10;;;;;;;3.63;1.97;;;;;;;;;;5031183;28;20317;-79
2023/09/02 06:45:36;;;;;;;5.20;1.90;;;;;;;;;;5031774;28;20274;-81
2023/09/02 06:48:02;;;;;;;2.87;1.90;;;;;;;;;;5030886;28;20199;-80
2023/09/02 06:50:28;;;;;;;5.40;2.30;;;;;;;;;;5028185;28;20190;-79
2023/09/02 06:52:54;;;;;;;2.33;2.03;;;;;;;;;;5031691;28;20183;-79
2023/09/02 06:55:20;;;;;;;2.07;1.73;;;;;;;;;;5030421;28;20247;-77
2023/09/02 06:57:47;;;;;;;2.03;1.80;;;;;;;;;;5030462;28;20210;-78
2023/09/02 07:00:13;;;;;;;5.07;2.30;;;;;;;;;;5028424;28;20202;-78
2023/09/02 07:02:40;;;;;;;2.63;2.10;;;;;;;;;;5027687;28;20187;-78
2023/09/02 07:05:06;;;;;;;3.10;1.90;;;;;;;;;;5029260;28;20309;-79
2023/09/02 07:07:32;;;;;;;3.27;2.20;;;;;;;;;;5029367;28;20206;-79
2023/09/02 07:09:58;;;;;;;3.83;2.20;;;;;;;;;;4996332;28;20193;-80
2023/09/02 07:12:25;;;;;;;4.57;2.43;;;;;;;;;;5029561;28;20665;-78
2023/09/02 07:14:51;;;;;;;3.33;2.20;;;;;;;;;;5030374;28;20174;-78
2023/09/02 07:17:17;;;;;;;2.47;2.27;;;;;;;;;;5028727;28;20209;-78
2023/09/02 07:19:43;;;;;;;2.37;2.17;;;;;;;;;;5030036;28;20178;-78
2023/09/02 07:22:09;;;;;;;2.60;2.20;;;;;;;;;;5028741;28;20612;-78
2023/09/02 07:24:35;;;;;;;5.40;2.30;;;;;;;;;;5030974;28;20663;-78
2023/09/02 07:27:01;;;;;;;2.07;1.90;;;;;;;;;;5029530;28;20344;-78
2023/09/02 07:29:28;;;;;;;3.03;2.20;;;;;;;;;;5028790;28;20178;-78
2023/09/02 07:31:54;;;;;;;2.13;1.73;;;;;;;;;;5029379;28;20198;-79
2023/09/02 07:34:20;;;;;;;2.23;1.90;;;;;;;;;;5030204;28;20650;-80
2023/09/02 07:36:47;;;;;;;2.30;1.80;;;;;;;;;;5030591;28;20303;-80
2023/09/02 07:39:16;;;;;;;3.37;1.90;;;;;;;;;;5030194;28;20194;-80
2023/09/02 07:41:42;;;;;;;4.17;1.70;;;;;;;;;;5029617;28;20317;-78
2023/09/02 07:44:09;;;;;;;2.57;1.73;;;;;;;;;;5030196;28;20179;-78
2023/09/02 07:46:35;;;;;;;4.90;1.80;;;;;;;;;;5028098;28;20182;-80
2023/09/02 07:49:01;;;;;;;2.47;1.90;;;;;;;;;;5028121;28;20244;-78
2023/09/02 07:51:27;;;;;;;1.87;1.70;;;;;;;;;;5026193;28;20680;-78
2023/09/02 07:53:53;;;;;;;1.87;1.70;;;;;;;;;;5029054;28;20186;-78
2023/09/02 07:56:20;;;;;;;4.77;1.80;;;;;;;;;;5029346;28;20641;-79
2023/09/02 07:58:48;;;;;;;3.10;1.87;;;;;;;;;;5029067;28;20237;-80
2023/09/02 08:01:15;;;;;;;5.23;2.13;;;;;;;;;;5040637;28;20255;-77
2023/09/02 08:03:41;;;;;;;3.00;1.80;;;;;;;;;;5026120;28;20175;-82
2023/09/02 08:06:08;;;;;;;4.27;2.00;;;;;;;;;;5026200;28;20665;-80
2023/09/02 08:08:35;;;;;;;2.60;2.17;;;;;;;;;;5028384;28;20213;-78
2023/09/02 08:11:05;;;;;;;3.43;2.03;;;;;;;;;;5024541;28;20190;-79
2023/09/02 08:13:31;;;;;;;2.90;1.67;;;;;;;;;;5051522;28;20193;-78
2023/09/02 08:15:58;;;;;;;5.60;1.83;;;;;;;;;;5025795;28;20178;-80
2023/09/02 08:18:24;;;;;;;2.90;1.80;;;;;;;;;;5022269;28;20205;-80
2023/09/02 08:20:50;;;;;;;3.60;1.87;;;;;;;;;;5026052;28;20206;-80
2023/09/02 08:23:16;;;;;;;1.90;1.70;;;;;;;;;;5025771;28;20213;-80
2023/09/02 08:25:42;;;;;;;3.23;1.93;;;;;;;;;;5029382;28;20290;-79
2023/09/02 08:28:09;;;;;;;2.13;1.93;;;;;;;;;;5024140;28;20259;-79
2023/09/02 08:30:35;;;;;;;3.60;2.20;;;;;;;;;;5022677;28;20182;-77
2023/09/02 08:33:03;;;;;;;2.83;2.10;;;;;;;;;;5026738;28;20282;-79
2023/09/02 08:35:34;;;;;;;4.23;2.20;;;;;;;;;;5022343;28;20265;-80
2023/09/02 08:38:00;;;;;;;2.40;2.20;;;;;;;;;;5024599;28;20305;-78
2023/09/02 08:40:26;;;;;;;3.40;2.20;;;;;;;;;;5026782;28;20209;-78
2023/09/02 08:42:53;;;;;;;3.43;1.87;;;;;;;;;;5025654;28;20179;-78
2023/09/02 08:45:22;;;;;;;4.30;1.90;;;;;;;;;;5022918;28;20265;-79
2023/09/02 08:47:52;;;;;;;1.90;1.80;;;;;;;;;;5018974;28;20209;-78
2023/09/02 08:50:19;;;;;;;2.03;1.80;;;;;;;;;;5052271;28;20217;-79
2023/09/02 08:52:45;;;;;;;2.50;1.50;;;;;;;;;;5002770;28;20607;-79
2023/09/02 08:55:12;;;;;;;1.40;1.30;;;;;;;;;;5022548;28;20277;-79
2023/09/02 08:57:39;;;;;;;1.90;1.80;;;;;;;;;;5023912;28;21040;-79
2023/09/02 09:00:06;;;;;;;4.60;1.93;;;;;;;;;;5022845;28;20278;-78
2023/09/02 09:02:40;;;;;;;1.60;1.40;;;;;;;;;;5012404;28;20210;-79
2023/09/02 09:05:08;;;;;;;2.37;1.40;;;;;;;;;;5032901;28;20187;-78
2023/09/02 09:07:34;;;;;;;1.87;1.50;;;;;;;;;;5032727;28;20710;-78
2023/09/02 09:10:01;;;;;;;2.07;1.70;;;;;;;;;;5030927;28;20242;-77
2023/09/02 09:12:29;;;;;;;2.00;1.40;;;;;;;;;;5025413;28;20266;-77
2023/09/02 09:14:58;;;;;;;2.03;1.50;;;;;;;;;;5055615;28;20550;-77
2023/09/02 09:17:25;;;;;;;1.90;1.30;;;;;;;;;;5026491;28;20206;-77
2023/09/02 09:19:52;;;;;;;3.97;1.70;;;;;;;;;;5030522;28;20725;-77
2023/09/02 09:22:19;;;;;;;1.80;1.60;;;;;;;;;;5028481;28;20260;-77
2023/09/02 09:24:45;;;;;;;1.67;1.57;;;;;;;;;;5028891;28;20641;-77
2023/09/02 09:27:11;;;;;;;2.40;1.63;;;;;;;;;;5031581;28;20673;-77
2023/09/02 09:29:41;;;;;;;1.90;1.60;;;;;;;;;;5028172;28;20237;-77
2023/09/02 09:32:14;;;;;;;3.37;1.60;;;;;;;;;;5031540;28;20191;-78
2023/09/02 09:34:44;;;;;;;3.17;1.57;;;;;;;;;;5028875;28;20193;-78
2023/09/02 09:37:10;;;;;;;1.43;1.30;;;;;;;;;;5029770;28;20271;-79
2023/09/02 09:39:40;;;;;;;1.50;1.30;;;;;;;;;;5027933;28;20185;-78
2023/09/02 09:42:07;;;;;;;2.37;1.30;;;;;;;;;;5028447;28;20210;-79
2023/09/02 09:44:33;;;;;;;2.67;1.20;;;;;;;;;;5029655;28;20673;-78
2023/09/02 09:47:00;;;;;;;1.80;1.30;;;;;;;;;;5028988;28;20202;-79
2023/09/02 09:49:33;;;;;;;1.37;1.20;;;;;;;;;;5056178;22;20279;-77
2023/09/02 09:52:02;;;;;;;1.83;1.20;;;;;;;;;;5030403;28;20273;-77
2023/09/02 09:54:58;;;;;;;1.67;1.00;;;;;;;;;;5007672;28;20278;-78
2023/09/02 09:57:30;;;;;;;2.90;1.20;;;;;;;;;;5022771;28;20199;-78
2023/09/02 09:59:57;;;;;;;3.13;1.27;;;;;;;;;;5017506;28;20647;-78
2023/09/02 10:02:23;;;;;;;1.23;1.00;;;;;;;;;;5015560;28;20186;-78
2023/09/02 10:04:52;;;;;;;1.63;1.30;;;;;;;;;;5017467;28;20215;-77
2023/09/02 10:07:21;;;;;;;1.40;1.20;;;;;;;;;;5019276;28;20269;-78
2023/09/02 10:09:47;;;;;;;1.33;1.00;;;;;;;;;;5017770;28;20282;-78
2023/09/02 10:12:15;;;;;;;2.33;1.00;;;;;;;;;;5013191;28;20211;-78
2023/09/02 10:14:42;;;;;;;2.30;1.00;;;;;;;;;;5017921;28;20189;-77
2023/09/02 10:17:12;;;;;;;1.10;1.00;;;;;;;;;;5018312;28;20188;-77
2023/09/02 10:19:39;;;;;;;1.10;0.90;;;;;;;;;;5014144;28;20266;-78
2023/09/02 10:22:06;;;;;;;1.00;0.90;;;;;;;;;;5016045;28;20210;-77
2023/09/02 10:24:34;;;;;;;1.10;1.00;;;;;;;;;;5015373;28;20175;-77
2023/09/02 10:27:00;;;;;;;1.93;1.10;;;;;;;;;;5013026;28;20210;-78
2023/09/02 10:29:29;;;;;;;0.90;0.90;;;;;;;;;;5007024;28;20655;-79
2023/09/02 10:31:58;;;;;;;0.90;0.90;;;;;;;;;;5018549;28;20179;-78
2023/09/02 10:34:27;;;;;;;1.63;0.90;;;;;;;;;;4995854;28;20190;-79
2023/09/02 10:36:57;;;;;;;2.53;2.30;;;;;;;;;;5018532;28;20198;-79
2023/09/02 10:39:35;;;;;;;1.80;1.50;;;;;;;;;;5016350;28;20208;-78
2023/09/02 10:42:02;;;;;;;1.60;1.20;;;;;;;;;;5018849;28;20273;-78
2023/09/02 10:44:28;;;;;;;1.50;1.10;;;;;;;;;;5014049;28;20184;-78
2023/09/02 10:46:55;;;;;;;2.70;1.40;;;;;;;;;;5017182;28;20180;-79
2023/09/02 10:49:22;;;;;;;2.03;1.20;;;;;;;;;;5013735;28;20217;-76
2023/09/02 10:51:49;;;;;;;1.23;1.13;;;;;;;;;;5014299;28;20188;-76
2023/09/02 10:54:15;;;;;;;1.83;1.20;;;;;;;;;;5019002;28;20194;-77
2023/09/02 10:56:41;;;;;;;1.20;1.00;;;;;;;;;;5014900;28;20221;-81
2023/09/02 10:59:08;;;;;;;6.87;1.50;;;;;;;;;;5016324;28;20892;-81
2023/09/02 11:01:47;;;;;;;2.07;1.17;;;;;;;;;;5008513;28;20216;-79
2023/09/02 11:04:14;;;;;;;1.20;1.10;;;;;;;;;;5016541;28;20279;-78
2023/09/02 11:06:59;;;;;;;1.70;1.07;;;;;;;;;;4997991;28;20187;-78
2023/09/02 11:09:44;;;;;;;4.43;1.10;;;;;;;;;;5013989;28;20209;-79
2023/09/02 11:12:10;;;;;;;1.20;1.10;;;;;;;;;;5009963;28;20186;-79
2023/09/02 11:14:36;;;;;;;1.63;1.23;;;;;;;;;;5017041;28;20179;-79
2023/09/02 11:17:21;;;;;;;1.13;1.00;;;;;;;;;;5016280;28;20188;-78
2023/09/02 11:19:56;;;;;;;1.63;1.20;;;;;;;;;;5008008;28;20210;-79
2023/09/02 11:22:42;;;;;;;1.23;1.10;;;;;;;;;;5014864;28;20278;-79
2023/09/02 11:25:08;;;;;;;1.33;1.10;;;;;;;;;;5012162;28;20248;-79
2023/09/02 11:27:45;;;;;;;0.90;0.90;;;;;;;;;;5016702;28;20189;-79
2023/09/02 11:30:11;;;;;;;1.27;1.00;;;;;;;;;;5012011;28;20470;-79
2023/09/02 11:32:44;;;;;;;1.30;1.20;;;;;;;;;;5013251;28;20673;-79
2023/09/02 11:35:15;;;;;;;1.27;1.00;;;;;;;;;;5008785;28;20735;-79
2023/09/02 11:37:41;;;;;;;2.20;1.20;;;;;;;;;;5013777;28;20179;-79
2023/09/02 11:40:18;;;;;;;1.53;1.20;;;;;;;;;;5019444;28;20313;-79
2023/09/02 11:42:50;;;;;;;1.27;1.17;;;;;;;;;;5007205;28;20235;-79
2023/09/02 11:45:17;;;;;;;1.70;1.10;;;;;;;;;;5011701;28;20186;-78
2023/09/02 11:47:43;;;;;;;2.10;1.20;;;;;;;;;;5014312;28;20549;-80
2023/09/02 11:50:16;;;;;;;2.27;1.30;;;;;;;;;;5020122;28;20797;-79
2023/09/02 11:52:43;;;;;;;1.40;1.20;;;;;;;;;;5014134;28;20179;-80
2023/09/02 11:55:13;;;;;;;2.93;1.20;;;;;;;;;;5021536;28;20214;-81
2023/09/02 11:57:39;;;;;;;1.13;1.00;;;;;;;;;;5017472;28;20190;-82
2023/09/02 12:00:07;;;;;;;1.20;1.10;;;;;;;;;;5020072;28;20757;-80
2023/09/02 12:02:39;;;;;;;1.40;1.10;;;;;;;;;;5009971;28;20254;-81
2023/09/02 12:05:05;;;;;;;1.73;1.20;;;;;;;;;;5013896;28;20185;-82
2023/09/02 12:07:33;;;;;;;1.17;1.07;;;;;;;;;;5016198;28;20183;-82
2023/09/02 12:10:05;;;;;;;1.50;1.10;;;;;;;;;;5018652;28;20693;-78
2023/09/02 12:12:31;;;;;;;1.30;1.20;;;;;;;;;;5016725;28;20186;-78
2023/09/02 12:14:57;;;;;;;1.43;1.20;;;;;;;;;;5017735;28;20192;-79
2023/09/02 12:17:23;;;;;;;3.17;1.20;;;;;;;;;;5011782;28;20207;-80
2023/09/02 12:19:50;;;;;;;1.07;1.00;;;;;;;;;;5012752;28;20200;-77
2023/09/02 12:22:17;;;;;;;1.83;1.30;;;;;;;;;;5014064;28;20221;-78
2023/09/02 12:24:43;;;;;;;3.40;1.30;;;;;;;;;;5016175;28;20183;-77
2023/09/02 12:27:15;;;;;;;1.40;1.30;;;;;;;;;;5019394;28;20806;-77
2023/09/02 12:29:41;;;;;;;2.60;1.30;;;;;;;;;;5015918;28;20584;-78
2023/09/02 12:32:09;;;;;;;1.00;1.00;;;;;;;;;;5016769;28;20190;-78
2023/09/02 12:34:38;;;;;;;1.80;1.13;;;;;;;;;;5013337;28;20198;-78
2023/09/02 12:37:21;;;;;;;1.87;1.30;;;;;;;;;;5022212;28;20186;-78
2023/09/02 12:39:47;;;;;;;1.27;1.03;;;;;;;;;;5012468;28;20214;-78
2023/09/02 12:42:18;;;;;;;1.27;1.17;;;;;;;;;;5021820;28;20221;-78
2023/09/02 12:44:51;;;;;;;1.83;1.40;;;;;;;;;;5016074;28;20652;-78
2023/09/02 12:47:20;;;;;;;2.67;1.10;;;;;;;;;;5020533;28;20290;-78
2023/09/02 12:49:47;;;;;;;1.27;1.17;;;;;;;;;;5019802;28;20215;-79
2023/09/02 12:52:22;;;;;;;1.77;1.30;;;;;;;;;;5016788;28;20196;-78
2023/09/02 12:54:53;;;;;;;2.10;1.10;;;;;;;;;;5012573;28;20179;-79
2023/09/02 12:57:20;;;;;;;2.20;1.10;;;;;;;;;;5021216;28;20196;-78
2023/09/02 12:59:46;;;;;;;1.20;1.10;;;;;;;;;;5019670;28;20577;-79
2023/09/02 13:02:14;;;;;;;1.60;1.20;;;;;;;;;;5022763;28;20243;-78
2023/09/02 13:04:44;;;;;;;1.70;1.13;;;;;;;;;;5020253;28;20192;-78
2023/09/02 13:07:13;;;;;;;1.00;0.90;;;;;;;;;;5016255;28;20728;-78
2023/09/02 13:09:43;;;;;;;1.00;1.00;;;;;;;;;;5018914;28;20213;-78
2023/09/02 13:12:12;;;;;;;1.20;1.10;;;;;;;;;;5022535;28;20203;-79
2023/09/02 13:14:39;;;;;;;1.30;1.20;;;;;;;;;;5019805;28;20186;-78
2023/09/02 13:17:06;;;;;;;1.20;1.10;;;;;;;;;;5022539;28;20204;-79
2023/09/02 13:19:33;;;;;;;2.00;0.90;;;;;;;;;;5016795;28;20344;-78
2023/09/02 13:21:59;;;;;;;1.30;1.20;;;;;;;;;;5019633;28;20206;-78
2023/09/02 13:24:26;;;;;;;1.10;1.10;;;;;;;;;;5018894;28;20210;-78
2023/09/02 13:26:55;;;;;;;2.03;1.30;;;;;;;;;;5019571;28;20608;-78
2023/09/02 13:29:24;;;;;;;1.20;1.10;;;;;;;;;;5020275;28;20289;-79
2023/09/02 13:31:51;;;;;;;2.77;1.17;;;;;;;;;;5020355;28;20180;-79
2023/09/02 13:34:31;;;;;;;1.10;1.00;;;;;;;;;;5020560;28;20199;-79
2023/09/02 13:37:06;;;;;;;1.13;0.97;;;;;;;;;;5020996;28;20192;-78
2023/09/02 13:39:32;;;;;;;2.17;1.17;;;;;;;;;;5016199;28;20205;-74
2023/09/02 13:42:02;;;;;;;1.43;1.17;;;;;;;;;;5021744;28;20206;-78
2023/09/02 13:44:30;;;;;;;1.10;1.00;;;;;;;;;;5018651;28;20194;-80
2023/09/02 13:47:05;;;;;;;1.10;1.00;;;;;;;;;;5016354;28;20184;-80
2023/09/02 13:49:34;;;;;;;1.43;0.97;;;;;;;;;;5002834;28;20760;-81
2023/09/02 13:52:00;;;;;;;1.17;1.07;;;;;;;;;;5012434;28;20168;-80
2023/09/02 13:54:27;;;;;;;2.37;1.20;;;;;;;;;;5009525;28;20243;-81
2023/09/02 13:56:54;;;;;;;1.25;1.10;;;;;;;;;;5007186;28;20328;-79
2023/09/02 13:59:24;;;;;;;1.10;1.00;;;;;;;;;;5006321;28;20214;-80
2023/09/02 14:01:52;;;;;;;1.63;1.27;;;;;;;;;;5009293;28;20708;-80
2023/09/02 14:04:19;;;;;;;1.80;1.15;;;;;;;;;;5006921;28;20808;-80
2023/09/02 14:06:47;;;;;;;2.78;1.00;;;;;;;;;;5012777;28;20273;-80
2023/09/02 14:09:18;;;;;;;1.38;1.05;;;;;;;;;;5010819;28;20669;-80
2023/09/02 14:11:44;;;;;;;1.85;1.23;;;;;;;;;;5024478;28;20178;-80
2023/09/02 14:14:15;;;;;;;1.75;1.00;;;;;;;;;;5011241;28;20204;-79
2023/09/02 14:16:41;;;;;;;1.10;1.10;;;;;;;;;;5008399;28;20190;-80
2023/09/02 14:19:08;;;;;;;1.00;1.00;;;;;;;;;;5006629;28;20326;-80
2023/09/02 14:21:34;;;;;;;1.00;1.00;;;;;;;;;;5009238;28;20244;-80
2023/09/02 14:24:00;;;;;;;1.42;0.98;;;;;;;;;;5015237;28;20187;-80
2023/09/02 14:26:30;;;;;;;1.35;1.10;;;;;;;;;;5014389;28;20186;-81
2023/09/02 14:28:57;;;;;;;1.30;1.20;;;;;;;;;;5014242;28;20285;-81
2023/09/02 14:31:23;;;;;;;0.95;0.95;;;;;;;;;;5018313;28;20239;-80
2023/09/02 14:33:49;;;;;;;2.33;1.15;;;;;;;;;;5015890;28;20219;-80
2023/09/02 14:36:16;;;;;;;2.03;1.92;;;;;;;;;;5023087;28;20194;-79
2023/09/02 14:38:42;;;;;;;1.50;1.30;;;;;;;;;;5016227;28;20284;-80
2023/09/02 14:41:08;;;;;;;1.23;1.13;;;;;;;;;;5017850;28;20246;-82
2023/09/02 14:43:34;;;;;;;1.35;1.10;;;;;;;;;;5008222;28;20272;-82
2023/09/02 14:46:00;;;;;;;1.10;1.00;;;;;;;;;;5016560;28;20221;-82
2023/09/02 14:48:26;;;;;;;1.33;1.23;;;;;;;;;;5015728;28;20223;-82